sensor_id;sensor_type;location;lat;lon;timestamp;temperature;humidity
23143;DHT22;11740;51.168;4.112;2023-07-13T00:01:59;17.70;1.00
23143;DHT22;11740;51.168;4.112;2023-07-13T00:04:26;17.70;1.00
23143;DHT22;11740;51.168;4.112;2023-07-13T00:06:53;17.60;1.00
23143;DHT22;11740;51.168;4.112;2023-07-13T00:09:21;17.60;1.00
23143;DHT22;11740;51.168;4.112;2023-07-13T00:11:54;17.60;1.00
23143;DHT22;11740;51.168;4.112;2023-07-13T00:14:23;17.60;1.00
23143;DHT22;11740;51.168;4.112;2023-07-13T00:16:51;17.60;1.00
23143;DHT22;11740;51.168;4.112;2023-07-13T00:19:19;17.40;1.00
23143;DHT22;11740;51.168;4.112;2023-07-13T00:21:46;17.50;1.00
23143;DHT22;11740;51.168;4.112;2023-07-13T00:24:16;17.40;1.00
23143;DHT22;11740;51.168;4.112;2023-07-13T00:26:50;17.40;1.00
23143;DHT22;11740;51.168;4.112;2023-07-13T00:29:18;17.30;1.00
23143;DHT22;11740;51.168;4.112;2023-07-13T00:31:45;17.30;1.00
23143;DHT22;11740;51.168;4.112;2023-07-13T00:34:12;17.30;1.00
23143;DHT22;11740;51.168;4.112;2023-07-13T00:36:39;17.20;15.80
23143;DHT22;11740;51.168;4.112;2023-07-13T00:39:06;17.20;1.00
23143;DHT22;11740;51.168;4.112;2023-07-13T00:41:33;17.20;11.70
23143;DHT22;11740;51.168;4.112;2023-07-13T00:44:01;17.10;99.90
23143;DHT22;11740;51.168;4.112;2023-07-13T00:46:31;17.10;99.90
23143;DHT22;11740;51.168;4.112;2023-07-13T00:49:03;17.00;99.90
23143;DHT22;11740;51.168;4.112;2023-07-13T00:51:41;17.00;99.90
23143;DHT22;11740;51.168;4.112;2023-07-13T00:54:14;17.00;99.90
23143;DHT22;11740;51.168;4.112;2023-07-13T00:56:45;16.90;99.90
23143;DHT22;11740;51.168;4.112;2023-07-13T00:59:16;16.80;99.90
23143;DHT22;11740;51.168;4.112;2023-07-13T01:01:44;16.80;99.90
23143;DHT22;11740;51.168;4.112;2023-07-13T01:04:11;16.80;99.90
23143;DHT22;11740;51.168;4.112;2023-07-13T01:06:39;16.80;99.90
23143;DHT22;11740;51.168;4.112;2023-07-13T01:09:07;16.70;99.90
23143;DHT22;11740;51.168;4.112;2023-07-13T01:11:34;16.70;99.90
23143;DHT22;11740;51.168;4.112;2023-07-13T01:14:02;16.70;99.90
23143;DHT22;11740;51.168;4.112;2023-07-13T01:16:32;16.80;99.90
23143;DHT22;11740;51.168;4.112;2023-07-13T01:19:00;16.70;99.90
23143;DHT22;11740;51.168;4.112;2023-07-13T01:21:29;16.60;1.00
23143;DHT22;11740;51.168;4.112;2023-07-13T01:23:59;16.70;99.90
23143;DHT22;11740;51.168;4.112;2023-07-13T01:26:26;16.60;1.00
23143;DHT22;11740;51.168;4.112;2023-07-13T01:28:53;16.60;99.90
23143;DHT22;11740;51.168;4.112;2023-07-13T01:31:23;16.60;1.00
23143;DHT22;11740;51.168;4.112;2023-07-13T01:33:51;16.50;1.00
23143;DHT22;11740;51.168;4.112;2023-07-13T01:36:18;16.50;1.00
23143;DHT22;11740;51.168;4.112;2023-07-13T01:38:48;16.50;1.00
23143;DHT22;11740;51.168;4.112;2023-07-13T01:41:15;16.40;1.00
23143;DHT22;11740;51.168;4.112;2023-07-13T01:43:42;16.50;1.00
23143;DHT22;11740;51.168;4.112;2023-07-13T01:46:09;16.50;1.00
23143;DHT22;11740;51.168;4.112;2023-07-13T01:48:49;16.40;1.00
23143;DHT22;11740;51.168;4.112;2023-07-13T01:51:17;16.40;1.00
23143;DHT22;11740;51.168;4.112;2023-07-13T01:53:45;16.40;1.00
23143;DHT22;11740;51.168;4.112;2023-07-13T01:56:12;16.40;1.00
23143;DHT22;11740;51.168;4.112;2023-07-13T01:58:39;16.30;1.00
23143;DHT22;11740;51.168;4.112;2023-07-13T02:01:06;16.30;1.00
23143;DHT22;11740;51.168;4.112;2023-07-13T02:03:33;16.30;1.00
23143;DHT22;11740;51.168;4.112;2023-07-13T02:06:00;16.20;1.00
23143;DHT22;11740;51.168;4.112;2023-07-13T02:08:27;16.30;1.00
23143;DHT22;11740;51.168;4.112;2023-07-13T02:10:54;16.30;1.00
23143;DHT22;11740;51.168;4.112;2023-07-13T02:13:21;16.20;1.00
23143;DHT22;11740;51.168;4.112;2023-07-13T02:15:51;16.20;1.00
23143;DHT22;11740;51.168;4.112;2023-07-13T02:18:18;16.20;26.50
23143;DHT22;11740;51.168;4.112;2023-07-13T02:20:45;16.20;71.10
23143;DHT22;11740;51.168;4.112;2023-07-13T02:23:12;16.10;99.90
23143;DHT22;11740;51.168;4.112;2023-07-13T02:25:39;16.10;99.90
23143;DHT22;11740;51.168;4.112;2023-07-13T02:28:06;16.10;99.90
23143;DHT22;11740;51.168;4.112;2023-07-13T02:30:34;16.00;99.90
23143;DHT22;11740;51.168;4.112;2023-07-13T02:33:02;16.00;99.90
23143;DHT22;11740;51.168;4.112;2023-07-13T02:35:29;16.00;99.90
23143;DHT22;11740;51.168;4.112;2023-07-13T02:37:56;16.00;99.90
23143;DHT22;11740;51.168;4.112;2023-07-13T02:40:23;16.00;1.00
23143;DHT22;11740;51.168;4.112;2023-07-13T02:42:50;16.00;1.00
23143;DHT22;11740;51.168;4.112;2023-07-13T02:45:17;16.00;1.00
23143;DHT22;11740;51.168;4.112;2023-07-13T02:47:44;16.00;1.00
23143;DHT22;11740;51.168;4.112;2023-07-13T02:50:11;15.90;1.00
23143;DHT22;11740;51.168;4.112;2023-07-13T02:52:38;16.00;1.00
23143;DHT22;11740;51.168;4.112;2023-07-13T02:55:06;15.90;1.00
23143;DHT22;11740;51.168;4.112;2023-07-13T02:57:33;16.00;1.00
23143;DHT22;11740;51.168;4.112;2023-07-13T03:00:01;16.00;1.00
23143;DHT22;11740;51.168;4.112;2023-07-13T03:02:32;16.00;1.00
23143;DHT22;11740;51.168;4.112;2023-07-13T03:05:01;16.00;1.00
23143;DHT22;11740;51.168;4.112;2023-07-13T03:07:30;16.00;1.00
23143;DHT22;11740;51.168;4.112;2023-07-13T03:09:58;16.00;1.00
23143;DHT22;11740;51.168;4.112;2023-07-13T03:12:25;15.90;1.00
23143;DHT22;11740;51.168;4.112;2023-07-13T03:14:52;15.90;35.00
23143;DHT22;11740;51.168;4.112;2023-07-13T03:17:19;15.90;35.60
23143;DHT22;11740;51.168;4.112;2023-07-13T03:19:46;15.90;99.90
23143;DHT22;11740;51.168;4.112;2023-07-13T03:22:19;15.80;99.90
23143;DHT22;11740;51.168;4.112;2023-07-13T03:24:46;15.90;35.20
23143;DHT22;11740;51.168;4.112;2023-07-13T03:27:13;15.90;35.80
23143;DHT22;11740;51.168;4.112;2023-07-13T03:29:41;15.80;99.90
23143;DHT22;11740;51.168;4.112;2023-07-13T03:32:09;15.80;99.90
23143;DHT22;11740;51.168;4.112;2023-07-13T03:34:36;15.70;99.90
23143;DHT22;11740;51.168;4.112;2023-07-13T03:37:03;15.70;99.90
23143;DHT22;11740;51.168;4.112;2023-07-13T03:39:30;15.70;99.90
23143;DHT22;11740;51.168;4.112;2023-07-13T03:41:57;15.70;99.90
23143;DHT22;11740;51.168;4.112;2023-07-13T03:44:24;15.70;99.90
23143;DHT22;11740;51.168;4.112;2023-07-13T03:46:51;15.80;99.90
23143;DHT22;11740;51.168;4.112;2023-07-13T03:49:18;15.70;99.90
23143;DHT22;11740;51.168;4.112;2023-07-13T03:51:45;15.70;1.00
23143;DHT22;11740;51.168;4.112;2023-07-13T03:54:12;15.80;1.00
23143;DHT22;11740;51.168;4.112;2023-07-13T03:56:39;15.80;1.00
23143;DHT22;11740;51.168;4.112;2023-07-13T03:59:06;15.80;99.90
23143;DHT22;11740;51.168;4.112;2023-07-13T04:01:34;15.80;1.00
23143;DHT22;11740;51.168;4.112;2023-07-13T04:04:01;15.80;1.00
23143;DHT22;11740;51.168;4.112;2023-07-13T04:06:30;15.80;1.00
23143;DHT22;11740;51.168;4.112;2023-07-13T04:09:00;15.80;1.00
23143;DHT22;11740;51.168;4.112;2023-07-13T04:11:31;15.80;1.00
23143;DHT22;11740;51.168;4.112;2023-07-13T04:13:59;15.80;1.00
23143;DHT22;11740;51.168;4.112;2023-07-13T04:16:27;15.80;1.00
23143;DHT22;11740;51.168;4.112;2023-07-13T04:18:54;15.80;1.00
23143;DHT22;11740;51.168;4.112;2023-07-13T04:21:27;15.80;1.00
23143;DHT22;11740;51.168;4.112;2023-07-13T04:23:55;15.80;1.00
23143;DHT22;11740;51.168;4.112;2023-07-13T04:26:23;15.80;1.00
23143;DHT22;11740;51.168;4.112;2023-07-13T04:28:51;15.80;1.00
23143;DHT22;11740;51.168;4.112;2023-07-13T04:31:18;15.80;1.00
23143;DHT22;11740;51.168;4.112;2023-07-13T04:33:46;15.80;1.00
23143;DHT22;11740;51.168;4.112;2023-07-13T04:36:15;15.80;1.00
23143;DHT22;11740;51.168;4.112;2023-07-13T04:38:43;15.80;1.00
23143;DHT22;11740;51.168;4.112;2023-07-13T04:41:10;15.80;1.00
23143;DHT22;11740;51.168;4.112;2023-07-13T04:43:37;15.80;1.00
23143;DHT22;11740;51.168;4.112;2023-07-13T04:46:10;15.90;1.00
23143;DHT22;11740;51.168;4.112;2023-07-13T04:48:39;15.90;1.00
23143;DHT22;11740;51.168;4.112;2023-07-13T04:51:06;15.90;1.00
23143;DHT22;11740;51.168;4.112;2023-07-13T04:53:34;15.90;1.00
23143;DHT22;11740;51.168;4.112;2023-07-13T04:56:02;15.90;5.20
23143;DHT22;11740;51.168;4.112;2023-07-13T04:58:30;16.00;24.70
23143;DHT22;11740;51.168;4.112;2023-07-13T05:01:02;16.00;1.00
23143;DHT22;11740;51.168;4.112;2023-07-13T05:03:30;15.90;1.00
23143;DHT22;11740;51.168;4.112;2023-07-13T05:06:08;16.00;1.00
23143;DHT22;11740;51.168;4.112;2023-07-13T05:08:38;15.90;1.00
23143;DHT22;11740;51.168;4.112;2023-07-13T05:11:05;16.00;30.80
23143;DHT22;11740;51.168;4.112;2023-07-13T05:13:34;16.00;1.00
23143;DHT22;11740;51.168;4.112;2023-07-13T05:16:03;16.00;1.00
23143;DHT22;11740;51.168;4.112;2023-07-13T05:18:33;16.10;1.00
23143;DHT22;11740;51.168;4.112;2023-07-13T05:21:05;16.10;1.00
23143;DHT22;11740;51.168;4.112;2023-07-13T05:23:35;16.10;1.00
23143;DHT22;11740;51.168;4.112;2023-07-13T05:26:03;16.10;1.00
23143;DHT22;11740;51.168;4.112;2023-07-13T05:28:35;16.10;26.30
23143;DHT22;11740;51.168;4.112;2023-07-13T05:31:02;16.10;6.70
23143;DHT22;11740;51.168;4.112;2023-07-13T05:33:29;16.10;1.00
23143;DHT22;11740;51.168;4.112;2023-07-13T05:35:57;16.10;1.00
23143;DHT22;11740;51.168;4.112;2023-07-13T05:38:24;16.20;1.00
23143;DHT22;11740;51.168;4.112;2023-07-13T05:40:53;16.20;1.00
23143;DHT22;11740;51.168;4.112;2023-07-13T05:43:20;16.20;21.40
23143;DHT22;11740;51.168;4.112;2023-07-13T05:45:48;16.20;1.00
23143;DHT22;11740;51.168;4.112;2023-07-13T05:48:16;16.20;1.00
23143;DHT22;11740;51.168;4.112;2023-07-13T05:50:43;16.30;21.30
23143;DHT22;11740;51.168;4.112;2023-07-13T05:53:11;16.30;36.00
23143;DHT22;11740;51.168;4.112;2023-07-13T05:55:42;16.30;1.00
23143;DHT22;11740;51.168;4.112;2023-07-13T05:58:11;16.30;1.00
23143;DHT22;11740;51.168;4.112;2023-07-13T06:00:38;16.30;1.00
23143;DHT22;11740;51.168;4.112;2023-07-13T06:03:06;16.40;1.00
23143;DHT22;11740;51.168;4.112;2023-07-13T06:05:35;16.40;1.00
23143;DHT22;11740;51.168;4.112;2023-07-13T06:08:04;16.40;1.00
23143;DHT22;11740;51.168;4.112;2023-07-13T06:10:35;16.40;1.00
23143;DHT22;11740;51.168;4.112;2023-07-13T06:13:03;16.50;1.00
23143;DHT22;11740;51.168;4.112;2023-07-13T06:15:32;16.50;1.00
23143;DHT22;11740;51.168;4.112;2023-07-13T06:17:59;16.60;1.00
23143;DHT22;11740;51.168;4.112;2023-07-13T06:20:27;16.70;1.00
23143;DHT22;11740;51.168;4.112;2023-07-13T06:22:54;16.70;1.00
23143;DHT22;11740;51.168;4.112;2023-07-13T06:25:21;16.80;1.00
23143;DHT22;11740;51.168;4.112;2023-07-13T06:27:48;16.80;1.00
23143;DHT22;11740;51.168;4.112;2023-07-13T06:30:14;16.80;1.00
23143;DHT22;11740;51.168;4.112;2023-07-13T06:32:41;16.80;1.00
23143;DHT22;11740;51.168;4.112;2023-07-13T06:35:08;16.90;1.00
23143;DHT22;11740;51.168;4.112;2023-07-13T06:37:39;17.00;1.00
23143;DHT22;11740;51.168;4.112;2023-07-13T06:40:06;17.00;1.00
23143;DHT22;11740;51.168;4.112;2023-07-13T06:42:34;17.00;1.00
23143;DHT22;11740;51.168;4.112;2023-07-13T06:45:01;17.10;99.90
23143;DHT22;11740;51.168;4.112;2023-07-13T06:47:29;17.20;1.00
23143;DHT22;11740;51.168;4.112;2023-07-13T06:49:59;17.30;99.90
23143;DHT22;11740;51.168;4.112;2023-07-13T06:52:27;17.20;99.90
23143;DHT22;11740;51.168;4.112;2023-07-13T06:54:54;17.30;99.90
23143;DHT22;11740;51.168;4.112;2023-07-13T06:57:21;17.30;99.90
23143;DHT22;11740;51.168;4.112;2023-07-13T06:59:48;17.30;99.90
23143;DHT22;11740;51.168;4.112;2023-07-13T07:02:15;17.40;99.90
23143;DHT22;11740;51.168;4.112;2023-07-13T07:04:42;17.40;99.90
23143;DHT22;11740;51.168;4.112;2023-07-13T07:07:08;17.40;99.90
23143;DHT22;11740;51.168;4.112;2023-07-13T07:09:35;17.50;99.90
23143;DHT22;11740;51.168;4.112;2023-07-13T07:12:03;17.60;99.90
23143;DHT22;11740;51.168;4.112;2023-07-13T07:14:31;17.60;99.90
23143;DHT22;11740;51.168;4.112;2023-07-13T07:16:58;17.60;99.90
23143;DHT22;11740;51.168;4.112;2023-07-13T07:19:27;17.70;99.90
23143;DHT22;11740;51.168;4.112;2023-07-13T07:21:55;17.70;99.90
23143;DHT22;11740;51.168;4.112;2023-07-13T07:24:22;17.80;99.90
23143;DHT22;11740;51.168;4.112;2023-07-13T07:26:49;17.90;99.90
23143;DHT22;11740;51.168;4.112;2023-07-13T07:29:19;18.00;36.00
23143;DHT22;11740;51.168;4.112;2023-07-13T07:31:49;18.10;36.60
23143;DHT22;11740;51.168;4.112;2023-07-13T07:34:32;18.10;35.90
23143;DHT22;11740;51.168;4.112;2023-07-13T07:37:00;18.10;10.00
23143;DHT22;11740;51.168;4.112;2023-07-13T07:39:31;18.10;2.00
23143;DHT22;11740;51.168;4.112;2023-07-13T07:41:58;18.30;35.60
23143;DHT22;11740;51.168;4.112;2023-07-13T07:44:25;18.30;1.00
23143;DHT22;11740;51.168;4.112;2023-07-13T07:46:54;18.40;1.00
23143;DHT22;11740;51.168;4.112;2023-07-13T07:49:21;18.50;1.00
23143;DHT22;11740;51.168;4.112;2023-07-13T07:51:48;18.40;1.00
23143;DHT22;11740;51.168;4.112;2023-07-13T07:54:15;18.50;1.00
23143;DHT22;11740;51.168;4.112;2023-07-13T07:57:02;18.50;1.00
23143;DHT22;11740;51.168;4.112;2023-07-13T07:59:33;18.60;1.00
23143;DHT22;11740;51.168;4.112;2023-07-13T08:02:03;18.70;99.90
23143;DHT22;11740;51.168;4.112;2023-07-13T08:04:33;18.80;99.90
23143;DHT22;11740;51.168;4.112;2023-07-13T08:07:03;18.80;99.90
23143;DHT22;11740;51.168;4.112;2023-07-13T08:09:30;18.90;99.90
23143;DHT22;11740;51.168;4.112;2023-07-13T08:11:57;19.00;99.90
23143;DHT22;11740;51.168;4.112;2023-07-13T08:14:27;19.20;99.90
23143;DHT22;11740;51.168;4.112;2023-07-13T08:17:12;19.20;99.90
23143;DHT22;11740;51.168;4.112;2023-07-13T08:19:39;19.30;89.10
23143;DHT22;11740;51.168;4.112;2023-07-13T08:22:06;19.30;83.90
23143;DHT22;11740;51.168;4.112;2023-07-13T08:24:33;19.40;64.00
23143;DHT22;11740;51.168;4.112;2023-07-13T08:27:00;19.50;1.00
23143;DHT22;11740;51.168;4.112;2023-07-13T08:29:27;19.60;1.00
23143;DHT22;11740;51.168;4.112;2023-07-13T08:31:54;19.60;1.00
23143;DHT22;11740;51.168;4.112;2023-07-13T08:34:21;19.60;1.00
23143;DHT22;11740;51.168;4.112;2023-07-13T08:36:48;19.60;1.00
23143;DHT22;11740;51.168;4.112;2023-07-13T08:39:15;19.70;1.00
23143;DHT22;11740;51.168;4.112;2023-07-13T08:41:45;19.80;99.90
23143;DHT22;11740;51.168;4.112;2023-07-13T08:47:09;20.30;99.90
23143;DHT22;11740;51.168;4.112;2023-07-13T08:49:38;20.50;99.90
23143;DHT22;11740;51.168;4.112;2023-07-13T08:52:22;20.50;73.60
23143;DHT22;11740;51.168;4.112;2023-07-13T08:54:55;20.50;82.10
23143;DHT22;11740;51.168;4.112;2023-07-13T08:57:34;20.50;34.40
23143;DHT22;11740;51.168;4.112;2023-07-13T09:00:02;20.60;49.80
23143;DHT22;11740;51.168;4.112;2023-07-13T09:02:42;20.80;42.00
23143;DHT22;11740;51.168;4.112;2023-07-13T09:10:47;20.60;1.00
23143;DHT22;11740;51.168;4.112;2023-07-13T09:15:53;20.70;1.00
23143;DHT22;11740;51.168;4.112;2023-07-13T09:21:29;21.00;1.00
23143;DHT22;11740;51.168;4.112;2023-07-13T09:24:17;21.30;1.00
23143;DHT22;11740;51.168;4.112;2023-07-13T09:27:18;21.50;1.00
23143;DHT22;11740;51.168;4.112;2023-07-13T09:30:02;21.80;1.00
23143;DHT22;11740;51.168;4.112;2023-07-13T09:32:36;22.00;1.00
23143;DHT22;11740;51.168;4.112;2023-07-13T09:35:12;22.10;1.00
23143;DHT22;11740;51.168;4.112;2023-07-13T09:37:44;22.20;1.00
23143;DHT22;11740;51.168;4.112;2023-07-13T09:40:59;22.30;1.00
23143;DHT22;11740;51.168;4.112;2023-07-13T09:43:27;22.30;1.00
23143;DHT22;11740;51.168;4.112;2023-07-13T09:45:55;22.20;1.00
23143;DHT22;11740;51.168;4.112;2023-07-13T09:48:23;22.10;1.00
23143;DHT22;11740;51.168;4.112;2023-07-13T09:50:55;22.20;1.00
23143;DHT22;11740;51.168;4.112;2023-07-13T09:53:23;22.30;1.00
23143;DHT22;11740;51.168;4.112;2023-07-13T09:55:51;22.10;1.00
23143;DHT22;11740;51.168;4.112;2023-07-13T09:58:26;22.10;1.00
23143;DHT22;11740;51.168;4.112;2023-07-13T10:01:01;22.20;1.00
23143;DHT22;11740;51.168;4.112;2023-07-13T10:03:36;22.30;1.00
23143;DHT22;11740;51.168;4.112;2023-07-13T10:06:16;22.30;1.00
23143;DHT22;11740;51.168;4.112;2023-07-13T10:08:46;22.30;1.00
23143;DHT22;11740;51.168;4.112;2023-07-13T10:11:50;22.40;1.00
23143;DHT22;11740;51.168;4.112;2023-07-13T10:14:20;22.50;1.00
23143;DHT22;11740;51.168;4.112;2023-07-13T10:16:55;22.70;1.00
23143;DHT22;11740;51.168;4.112;2023-07-13T10:19:32;22.70;1.00
23143;DHT22;11740;51.168;4.112;2023-07-13T10:25:14;22.80;1.00
23143;DHT22;11740;51.168;4.112;2023-07-13T10:27:45;22.90;1.00
23143;DHT22;11740;51.168;4.112;2023-07-13T10:30:17;22.90;1.00
23143;DHT22;11740;51.168;4.112;2023-07-13T10:32:47;23.00;1.00
23143;DHT22;11740;51.168;4.112;2023-07-13T10:35:17;23.10;1.00
23143;DHT22;11740;51.168;4.112;2023-07-13T10:37:51;23.10;1.00
23143;DHT22;11740;51.168;4.112;2023-07-13T10:40:23;23.10;1.00
23143;DHT22;11740;51.168;4.112;2023-07-13T10:42:53;23.00;1.00
23143;DHT22;11740;51.168;4.112;2023-07-13T10:45:22;23.10;1.00
23143;DHT22;11740;51.168;4.112;2023-07-13T10:47:52;23.20;1.00
23143;DHT22;11740;51.168;4.112;2023-07-13T10:50:24;23.10;1.00
23143;DHT22;11740;51.168;4.112;2023-07-13T10:52:54;23.10;1.00
23143;DHT22;11740;51.168;4.112;2023-07-13T10:55:41;23.30;1.00
23143;DHT22;11740;51.168;4.112;2023-07-13T10:58:24;23.00;1.00
23143;DHT22;11740;51.168;4.112;2023-07-13T11:06:17;22.70;1.00
23143;DHT22;11740;51.168;4.112;2023-07-13T11:08:58;22.70;1.00
23143;DHT22;11740;51.168;4.112;2023-07-13T11:11:35;22.70;1.00
23143;DHT22;11740;51.168;4.112;2023-07-13T11:14:14;22.60;1.00
23143;DHT22;11740;51.168;4.112;2023-07-13T11:16:52;22.50;1.00
23143;DHT22;11740;51.168;4.112;2023-07-13T11:22:11;22.60;1.00
23143;DHT22;11740;51.168;4.112;2023-07-13T11:27:41;22.10;1.00
23143;DHT22;11740;51.168;4.112;2023-07-13T11:30:23;22.00;99.90
23143;DHT22;11740;51.168;4.112;2023-07-13T11:38:37;22.00;99.90
23143;DHT22;11740;51.168;4.112;2023-07-13T11:41:18;22.00;99.90
23143;DHT22;11740;51.168;4.112;2023-07-13T11:43:53;21.70;99.90
23143;DHT22;11740;51.168;4.112;2023-07-13T11:46:27;21.40;99.90
23143;DHT22;11740;51.168;4.112;2023-07-13T11:48:54;21.20;1.00
23143;DHT22;11740;51.168;4.112;2023-07-13T11:51:32;21.40;1.00
23143;DHT22;11740;51.168;4.112;2023-07-13T11:54:13;21.60;99.90
23143;DHT22;11740;51.168;4.112;2023-07-13T11:56:48;21.90;99.90
23143;DHT22;11740;51.168;4.112;2023-07-13T11:59:18;22.00;99.90
23143;DHT22;11740;51.168;4.112;2023-07-13T12:01:53;22.00;99.90
23143;DHT22;11740;51.168;4.112;2023-07-13T12:04:28;21.90;99.90
23143;DHT22;11740;51.168;4.112;2023-07-13T12:07:15;21.90;99.90
23143;DHT22;11740;51.168;4.112;2023-07-13T12:09:43;22.00;99.90
23143;DHT22;11740;51.168;4.112;2023-07-13T12:12:17;22.10;99.90
23143;DHT22;11740;51.168;4.112;2023-07-13T12:14:45;21.80;99.90
23143;DHT22;11740;51.168;4.112;2023-07-13T12:17:23;22.00;99.90
23143;DHT22;11740;51.168;4.112;2023-07-13T12:19:52;22.10;99.90
23143;DHT22;11740;51.168;4.112;2023-07-13T12:22:20;22.00;99.90
23143;DHT22;11740;51.168;4.112;2023-07-13T12:24:48;22.10;99.90
23143;DHT22;11740;51.168;4.112;2023-07-13T12:27:26;22.00;99.90
23143;DHT22;11740;51.168;4.112;2023-07-13T12:30:05;21.90;99.90
23143;DHT22;11740;51.168;4.112;2023-07-13T12:32:58;21.90;99.90
23143;DHT22;11740;51.168;4.112;2023-07-13T12:35:29;22.00;99.90
23143;DHT22;11740;51.168;4.112;2023-07-13T12:37:58;22.00;99.90
23143;DHT22;11740;51.168;4.112;2023-07-13T12:40:33;22.30;99.90
23143;DHT22;11740;51.168;4.112;2023-07-13T12:43:03;22.30;99.90
23143;DHT22;11740;51.168;4.112;2023-07-13T12:45:33;22.20;99.90
23143;DHT22;11740;51.168;4.112;2023-07-13T12:50:46;22.50;99.90
23143;DHT22;11740;51.168;4.112;2023-07-13T12:53:18;22.50;97.40
23143;DHT22;11740;51.168;4.112;2023-07-13T12:55:56;22.50;85.20
23143;DHT22;11740;51.168;4.112;2023-07-13T12:58:26;22.50;73.20
23143;DHT22;11740;51.168;4.112;2023-07-13T13:00:58;22.80;59.10
23143;DHT22;11740;51.168;4.112;2023-07-13T13:03:40;22.60;20.30
23143;DHT22;11740;51.168;4.112;2023-07-13T13:08:41;22.80;9.90
23143;DHT22;11740;51.168;4.112;2023-07-13T13:11:10;23.00;8.70
23143;DHT22;11740;51.168;4.112;2023-07-13T13:13:37;23.20;1.00
23143;DHT22;11740;51.168;4.112;2023-07-13T13:18:56;23.30;1.00
23143;DHT22;11740;51.168;4.112;2023-07-13T13:21:24;23.40;1.00
23143;DHT22;11740;51.168;4.112;2023-07-13T13:23:52;23.50;1.00
23143;DHT22;11740;51.168;4.112;2023-07-13T13:26:22;23.60;1.00
23143;DHT22;11740;51.168;4.112;2023-07-13T13:28:49;23.60;1.00
23143;DHT22;11740;51.168;4.112;2023-07-13T13:31:17;23.70;1.00
23143;DHT22;11740;51.168;4.112;2023-07-13T13:33:45;23.70;1.00
23143;DHT22;11740;51.168;4.112;2023-07-13T13:36:18;23.90;1.00
23143;DHT22;11740;51.168;4.112;2023-07-13T13:38:48;23.90;1.00
23143;DHT22;11740;51.168;4.112;2023-07-13T13:41:16;23.90;1.00
23143;DHT22;11740;51.168;4.112;2023-07-13T13:43:43;23.90;1.00
23143;DHT22;11740;51.168;4.112;2023-07-13T13:46:19;24.00;1.00
23143;DHT22;11740;51.168;4.112;2023-07-13T13:48:51;23.90;1.00
23143;DHT22;11740;51.168;4.112;2023-07-13T13:51:20;23.90;1.00
23143;DHT22;11740;51.168;4.112;2023-07-13T13:53:48;23.80;1.00
23143;DHT22;11740;51.168;4.112;2023-07-13T13:56:18;24.00;1.00
23143;DHT22;11740;51.168;4.112;2023-07-13T13:58:46;24.20;1.00
23143;DHT22;11740;51.168;4.112;2023-07-13T14:01:18;24.20;1.00
23143;DHT22;11740;51.168;4.112;2023-07-13T14:03:47;24.40;1.00
23143;DHT22;11740;51.168;4.112;2023-07-13T14:06:18;24.20;1.00
23143;DHT22;11740;51.168;4.112;2023-07-13T14:08:45;24.10;1.00
23143;DHT22;11740;51.168;4.112;2023-07-13T14:11:15;24.10;1.00
23143;DHT22;11740;51.168;4.112;2023-07-13T14:13:47;24.20;1.00
23143;DHT22;11740;51.168;4.112;2023-07-13T14:16:19;24.30;1.00
23143;DHT22;11740;51.168;4.112;2023-07-13T14:18:48;24.10;1.00
23143;DHT22;11740;51.168;4.112;2023-07-13T14:21:18;24.00;1.00
23143;DHT22;11740;51.168;4.112;2023-07-13T14:23:47;24.10;1.00
23143;DHT22;11740;51.168;4.112;2023-07-13T14:26:20;24.20;1.00
23143;DHT22;11740;51.168;4.112;2023-07-13T14:28:55;24.10;1.00
23143;DHT22;11740;51.168;4.112;2023-07-13T14:31:26;24.20;1.00
23143;DHT22;11740;51.168;4.112;2023-07-13T14:33:56;24.20;1.00
23143;DHT22;11740;51.168;4.112;2023-07-13T14:36:31;24.20;1.00
23143;DHT22;11740;51.168;4.112;2023-07-13T14:39:15;24.30;1.00
23143;DHT22;11740;51.168;4.112;2023-07-13T14:41:44;24.40;1.00
23143;DHT22;11740;51.168;4.112;2023-07-13T14:44:17;24.50;1.00
23143;DHT22;11740;51.168;4.112;2023-07-13T14:46:47;24.60;1.00
23143;DHT22;11740;51.168;4.112;2023-07-13T14:49:37;24.70;1.00
23143;DHT22;11740;51.168;4.112;2023-07-13T14:52:16;24.90;1.00
23143;DHT22;11740;51.168;4.112;2023-07-13T14:54:45;24.80;1.00
23143;DHT22;11740;51.168;4.112;2023-07-13T14:57:17;24.90;1.00
23143;DHT22;11740;51.168;4.112;2023-07-13T14:59:46;25.00;1.00
23143;DHT22;11740;51.168;4.112;2023-07-13T15:02:32;25.10;1.00
23143;DHT22;11740;51.168;4.112;2023-07-13T15:05:01;25.20;1.00
23143;DHT22;11740;51.168;4.112;2023-07-13T15:07:29;25.10;1.00
23143;DHT22;11740;51.168;4.112;2023-07-13T15:09:56;25.20;1.00
23143;DHT22;11740;51.168;4.112;2023-07-13T15:12:23;25.10;1.00
23143;DHT22;11740;51.168;4.112;2023-07-13T15:14:50;25.20;1.00
23143;DHT22;11740;51.168;4.112;2023-07-13T15:17:32;25.00;1.00
23143;DHT22;11740;51.168;4.112;2023-07-13T15:20:16;25.20;1.00
23143;DHT22;11740;51.168;4.112;2023-07-13T15:22:46;25.20;1.00
23143;DHT22;11740;51.168;4.112;2023-07-13T15:25:20;25.20;1.00
23143;DHT22;11740;51.168;4.112;2023-07-13T15:27:48;25.20;1.00
23143;DHT22;11740;51.168;4.112;2023-07-13T15:30:15;25.30;1.00
23143;DHT22;11740;51.168;4.112;2023-07-13T15:32:44;25.30;1.00
23143;DHT22;11740;51.168;4.112;2023-07-13T15:37:46;25.40;1.00
23143;DHT22;11740;51.168;4.112;2023-07-13T15:40:14;25.60;1.00
23143;DHT22;11740;51.168;4.112;2023-07-13T15:42:43;25.70;1.00
23143;DHT22;11740;51.168;4.112;2023-07-13T15:45:16;25.80;1.00
23143;DHT22;11740;51.168;4.112;2023-07-13T15:47:45;26.00;1.00
23143;DHT22;11740;51.168;4.112;2023-07-13T15:50:20;26.00;1.00
23143;DHT22;11740;51.168;4.112;2023-07-13T15:52:51;25.90;1.00
23143;DHT22;11740;51.168;4.112;2023-07-13T15:55:20;26.00;1.00
23143;DHT22;11740;51.168;4.112;2023-07-13T15:57:50;26.00;1.00
23143;DHT22;11740;51.168;4.112;2023-07-13T16:02:49;26.00;1.00
23143;DHT22;11740;51.168;4.112;2023-07-13T16:05:18;25.80;1.00
23143;DHT22;11740;51.168;4.112;2023-07-13T16:07:47;25.80;1.00
23143;DHT22;11740;51.168;4.112;2023-07-13T16:10:36;25.70;99.90
23143;DHT22;11740;51.168;4.112;2023-07-13T16:13:15;25.50;99.90
23143;DHT22;11740;51.168;4.112;2023-07-13T16:15:42;25.50;99.90
23143;DHT22;11740;51.168;4.112;2023-07-13T16:18:12;25.40;99.90
23143;DHT22;11740;51.168;4.112;2023-07-13T16:20:39;25.70;99.90
23143;DHT22;11740;51.168;4.112;2023-07-13T16:23:09;25.90;99.90
23143;DHT22;11740;51.168;4.112;2023-07-13T16:25:39;25.90;99.90
23143;DHT22;11740;51.168;4.112;2023-07-13T16:28:08;26.00;99.90
23143;DHT22;11740;51.168;4.112;2023-07-13T16:30:39;26.30;99.90
23143;DHT22;11740;51.168;4.112;2023-07-13T16:33:07;26.60;99.90
23143;DHT22;11740;51.168;4.112;2023-07-13T16:35:38;26.70;99.90
23143;DHT22;11740;51.168;4.112;2023-07-13T16:38:14;27.00;99.90
23143;DHT22;11740;51.168;4.112;2023-07-13T16:40:42;27.00;99.90
23143;DHT22;11740;51.168;4.112;2023-07-13T16:43:14;27.10;99.90
23143;DHT22;11740;51.168;4.112;2023-07-13T16:45:49;27.20;99.90
23143;DHT22;11740;51.168;4.112;2023-07-13T16:48:20;27.30;99.90